KSOP/SOP METAR and TAF weather

Enter ICAO airport designator
Station Type Date Time Source
KSOP METAR 2021/10/22 17:56 UTC NOAA

KSOP 221756Z AUTO 27006KT 10SM SCT039 25/16 A2995 RMK AO2 SLP142 6//// T02500156 10261 20172 58016


Station Type Date Time Source
KSOP Decoded METAR 2021/10/22 17:56 UTC NOAA

Pinehurst/Southern Pines, Moore County Airport, NC, United States (KSOP) 35-14N 079-24W
Oct 22, 2021 - 01:56 PM EDT / 2021.10.22 1756 UTC
Wind: from the W (270 degrees) at 7 MPH (6 KT):0
Visibility: 10 mile(s):0
Sky conditions: partly cloudy
Temperature: 77.0 F (25.0 C)
Dew Point: 60.1 F (15.6 C)
Relative Humidity: 55%
Pressure (altimeter): 29.95 in. Hg (1014 hPa)
Pressure tendency: 0.05 inches (1.6 hPa) lower than three hours ago
ob: KSOP 221756Z AUTO 27006KT 10SM SCT039 25/16 A2995 RMK AO2 SLP142 6//// T02500156 10261 20172 58016
cycle: 18

Station Type Date Time Source
KSOP TAF UTC NOAA

Error!

Example: see airport list